createdAt,value
2023-02-26T00:01:16.603Z,98076.63
2023-02-26T00:04:19.300Z,98075.53
2023-02-26T00:07:21.959Z,98076.34
2023-02-26T00:10:24.559Z,98079.84
2023-02-26T00:13:29.391Z,98070.44
2023-02-26T00:16:34.160Z,98078.75
2023-02-26T00:19:37.197Z,98081.00
2023-02-26T00:22:40.501Z,98074.25
2023-02-26T00:25:43.479Z,98078.56
2023-02-26T00:28:48.057Z,98087.47
2023-02-26T00:31:51.703Z,98080.78
2023-02-26T00:34:55.432Z,98088.06
2023-02-26T00:38:00.983Z,98086.97
2023-02-26T00:41:06.106Z,98086.16
2023-02-26T00:44:10.774Z,98090.22
2023-02-26T00:47:19.846Z,98091.84
2023-02-26T00:50:24.332Z,98083.78
2023-02-26T00:53:30.294Z,98087.81
2023-02-26T00:56:33.118Z,98093.19
2023-02-26T00:59:37.042Z,98092.41
2023-02-26T01:02:39.972Z,98091.03
2023-02-26T01:05:43.093Z,98094.00
2023-02-26T01:08:49.375Z,98096.97
2023-02-26T01:11:52.737Z,98094.81
2023-02-26T01:14:57.112Z,98091.31
2023-02-26T01:18:05.983Z,98084.34
2023-02-26T01:21:11.836Z,98092.41
2023-02-26T01:24:16.853Z,98086.47
2023-02-26T01:27:19.782Z,98088.06
2023-02-26T01:30:25.500Z,98087.50
2023-02-26T01:33:31.536Z,98086.69
2023-02-26T01:36:37.691Z,98088.00
2023-02-26T01:39:43.564Z,98088.47
2023-02-26T01:42:48.217Z,98095.63
2023-02-26T01:45:58.317Z,98097.56
2023-02-26T01:49:01.916Z,98110.16
2023-02-26T01:52:05.494Z,98106.63
2023-02-26T01:55:08.263Z,98108.00
2023-02-26T01:58:10.891Z,98097.50
2023-02-26T02:01:14.828Z,98102.34
2023-02-26T02:04:17.503Z,98104.44
2023-02-26T02:07:20.319Z,98107.59
2023-02-26T02:10:23.312Z,98107.91
2023-02-26T02:13:37.023Z,98103.75
2023-02-26T02:16:48.696Z,98102.00
2023-02-26T02:20:15.452Z,98105.34
2023-02-26T02:23:21.453Z,98112.34
2023-02-26T02:27:04.232Z,98116.28
2023-02-26T02:30:26.667Z,98116.63
2023-02-26T02:33:33.983Z,98114.41
2023-02-26T02:36:40.801Z,98125.66
2023-02-26T02:39:44.902Z,98125.72
2023-02-26T02:42:51.266Z,98122.19
2023-02-26T02:45:56.170Z,98132.63
2023-02-26T02:49:02.277Z,98132.28
2023-02-26T02:52:10.928Z,98138.31
2023-02-26T02:55:18.999Z,98128.81
2023-02-26T02:58:23.993Z,98132.91
2023-02-26T03:01:28.883Z,98131.16
2023-02-26T03:04:32.874Z,98141.13
2023-02-26T03:07:37.885Z,98139.47
2023-02-26T03:10:40.876Z,98137.28
2023-02-26T03:13:43.712Z,98146.81
2023-02-26T03:17:02.530Z,98143.13
2023-02-26T03:20:15.497Z,98146.94
2023-02-26T03:23:21.558Z,98157.16
2023-02-26T03:26:30.928Z,98156.25
2023-02-26T03:29:43.005Z,98159.94
2023-02-26T03:32:51.443Z,98159.72
2023-02-26T03:35:58.109Z,98162.78
2023-02-26T03:39:05.633Z,98157.97
2023-02-26T03:42:11.045Z,98158.66
2023-02-26T03:45:15.882Z,98165.22
2023-02-26T03:48:21.575Z,98166.63
2023-02-26T03:51:26.467Z,98173.16
2023-02-26T03:54:32.106Z,98165.47
2023-02-26T03:57:34.797Z,98163.53
2023-02-26T04:00:42.750Z,98180.41
2023-02-26T04:03:49.137Z,98175.31
2023-02-26T04:06:53.665Z,98184.16
2023-02-26T04:09:57.505Z,98185.09
2023-02-26T04:13:01.212Z,98188.63
2023-02-26T04:16:04.316Z,98187.19
2023-02-26T04:19:06.981Z,98190.25
2023-02-26T04:22:11.179Z,98189.19
2023-02-26T04:25:14.139Z,98186.84
2023-02-26T04:28:17.288Z,98186.78
2023-02-26T04:31:20.584Z,98194.75
2023-02-26T04:34:23.315Z,98198.53
2023-02-26T04:37:27.366Z,98197.75
2023-02-26T04:40:30.142Z,98205.28
2023-02-26T04:43:33.162Z,98204.09
2023-02-26T04:46:35.797Z,98206.06
2023-02-26T04:49:38.636Z,98212.34
2023-02-26T04:52:42.591Z,98215.41
2023-02-26T04:55:45.236Z,98214.06
2023-02-26T04:58:47.807Z,98215.34
2023-02-26T05:01:50.588Z,98218.72
2023-02-26T05:04:53.263Z,98213.47
2023-02-26T05:07:57.256Z,98216.69
2023-02-26T05:10:59.916Z,98219.69
2023-02-26T05:14:02.550Z,98224.19
2023-02-26T05:17:05.232Z,98228.03
2023-02-26T05:20:10.290Z,98231.28
2023-02-26T05:23:14.398Z,98234.28
2023-02-26T05:26:16.969Z,98237.44
2023-02-26T05:29:19.604Z,98249.28
2023-02-26T05:32:22.829Z,98242.84
2023-02-26T05:35:25.550Z,98251.38
2023-02-26T05:38:29.448Z,98248.06
2023-02-26T05:41:31.884Z,98255.91
2023-02-26T05:44:35.419Z,98256.97
2023-02-26T05:47:38.224Z,98267.28
2023-02-26T05:50:40.859Z,98262.88
2023-02-26T05:53:44.805Z,98266.75
2023-02-26T05:56:47.588Z,98274.28
2023-02-26T05:59:50.319Z,98270.06
2023-02-26T06:02:52.872Z,98278.75
2023-02-26T06:05:55.501Z,98278.53
2023-02-26T06:09:01.324Z,98290.06
2023-02-26T06:12:04.224Z,98293.75
2023-02-26T06:15:08.658Z,98292.72
2023-02-26T06:18:11.469Z,98303.59
2023-02-26T06:21:14.492Z,98307.78
2023-02-26T06:24:18.474Z,98317.69
2023-02-26T06:27:21.052Z,98315.91
2023-02-26T06:30:23.848Z,98312.06
2023-02-26T06:33:26.591Z,98329.06
2023-02-26T06:36:29.135Z,98334.75
2023-02-26T06:39:33.178Z,98336.19
2023-02-26T06:42:35.775Z,98339.81
2023-02-26T06:45:38.428Z,98340.25
2023-02-26T06:48:41.200Z,98351.03
2023-02-26T06:51:44.007Z,98368.66
2023-02-26T06:54:47.935Z,98369.63
2023-02-26T06:57:50.370Z,98377.94
2023-02-26T07:00:53.149Z,98373.78
2023-02-26T07:03:56.112Z,98384.72
2023-02-26T07:06:59.310Z,98385.63
2023-02-26T07:10:03.550Z,98387.94
2023-02-26T07:13:06.242Z,98389.31
2023-02-26T07:16:09.004Z,98389.00
2023-02-26T07:19:11.947Z,98394.19
2023-02-26T07:22:14.998Z,98396.91
2023-02-26T07:25:19.109Z,98395.47
2023-02-26T07:28:21.799Z,98398.31
2023-02-26T07:31:24.573Z,98398.94
2023-02-26T07:34:27.349Z,98387.69
2023-02-26T07:37:29.930Z,98394.69
2023-02-26T07:40:35.155Z,98406.25
2023-02-26T07:43:37.765Z,98402.50
2023-02-26T07:46:40.553Z,98407.06
2023-02-26T07:49:43.144Z,98410.25
2023-02-26T07:52:46.309Z,98409.75
2023-02-26T07:55:50.697Z,98420.22
2023-02-26T07:58:53.826Z,98428.53
2023-02-26T08:01:56.920Z,98426.94
2023-02-26T08:04:59.660Z,98417.31
2023-02-26T08:08:03.269Z,98428.34
2023-02-26T08:11:07.285Z,98427.56
2023-02-26T08:14:10.378Z,98425.69
2023-02-26T08:17:12.928Z,98431.84
2023-02-26T08:20:16.411Z,98434.13
2023-02-26T08:23:18.971Z,98425.56
2023-02-26T08:26:23.664Z,98431.13
2023-02-26T08:29:26.579Z,98428.88
2023-02-26T08:32:29.314Z,98428.28
2023-02-26T08:35:32.149Z,98429.50
2023-02-26T08:38:34.902Z,98430.44
2023-02-26T08:41:39.437Z,98433.25
2023-02-26T08:44:41.953Z,98434.00
2023-02-26T08:47:56.371Z,98437.25
2023-02-26T08:50:59.836Z,98452.34
2023-02-26T08:54:02.482Z,98455.03
2023-02-26T08:57:06.419Z,98459.06
2023-02-26T09:00:11.512Z,98463.59
2023-02-26T09:03:14.480Z,98460.41
2023-02-26T09:06:17.061Z,98460.66
2023-02-26T09:09:20.268Z,98461.50
2023-02-26T09:12:24.161Z,98465.53
2023-02-26T09:15:26.635Z,98467.38
2023-02-26T09:18:29.270Z,98470.53
2023-02-26T09:21:32.366Z,98465.09
2023-02-26T09:24:35.719Z,98475.94
2023-02-26T09:27:39.660Z,98474.88
2023-02-26T09:30:42.201Z,98483.28
2023-02-26T09:33:44.843Z,98482.41
2023-02-26T09:36:47.582Z,98488.38
2023-02-26T09:39:50.076Z,98488.72
2023-02-26T09:43:03.504Z,98496.78
2023-02-26T09:46:10.993Z,98504.59
2023-02-26T09:49:29.991Z,98505.13
2023-02-26T09:52:36.954Z,98505.66
2023-02-26T09:55:43.592Z,98513.22
2023-02-26T09:58:47.853Z,98510.22
2023-02-26T10:01:57.667Z,98516.44
2023-02-26T10:05:07.438Z,98508.91
2023-02-26T10:08:18.330Z,98529.38
2023-02-26T10:11:27.197Z,98516.16
2023-02-26T10:14:34.862Z,98525.59
2023-02-26T10:17:47.924Z,98519.69
2023-02-26T10:20:56.427Z,98528.31
2023-02-26T10:24:06.116Z,98530.72
2023-02-26T10:27:13.946Z,98522.91
2023-02-26T10:30:24.220Z,98533.16
2023-02-26T10:33:34.106Z,98536.66
2023-02-26T10:36:49.480Z,98529.91
2023-02-26T10:39:56.903Z,98527.78
2023-02-26T10:43:01.379Z,98544.44
2023-02-26T10:46:17.375Z,98544.88
2023-02-26T10:49:36.625Z,98543.28
2023-02-26T10:52:39.805Z,98533.03
2023-02-26T10:55:44.648Z,98539.47
2023-02-26T10:58:47.520Z,98540.13
2023-02-26T11:01:52.229Z,98537.94
2023-02-26T11:05:06.924Z,98533.34
2023-02-26T11:08:14.707Z,98536.44
2023-02-26T11:11:41.279Z,98534.66
2023-02-26T11:14:45.013Z,98527.38
2023-02-26T11:17:49.765Z,98530.41
2023-02-26T11:20:56.079Z,98526.91
2023-02-26T11:24:00.843Z,98526.75
2023-02-26T11:27:05.572Z,98531.06
2023-02-26T11:30:19.793Z,98536.94
2023-02-26T11:33:36.480Z,98536.22
2023-02-26T11:36:42.166Z,98534.16
2023-02-26T11:39:47.230Z,98537.06
2023-02-26T11:42:55.356Z,98532.56
2023-02-26T11:46:00.672Z,98525.16
2023-02-26T11:49:04.814Z,98536.25
2023-02-26T11:52:18.640Z,98538.88
2023-02-26T11:55:22.993Z,98530.22
2023-02-26T11:58:26.150Z,98527.94
2023-02-26T12:01:30.368Z,98524.88
2023-02-26T12:04:34.334Z,98539.56
2023-02-26T12:07:37.171Z,98535.53
2023-02-26T12:10:44.059Z,98538.38
2023-02-26T12:13:58.873Z,98537.06
2023-02-26T12:17:09.660Z,98546.06
2023-02-26T12:20:20.558Z,98540.53
2023-02-26T12:23:47.108Z,98542.56
2023-02-26T12:26:56.034Z,98542.44
2023-02-26T12:30:09.689Z,98554.56
2023-02-26T12:33:21.081Z,98555.06
2023-02-26T12:36:47.994Z,98557.91
2023-02-26T12:39:59.448Z,98559.50
2023-02-26T12:43:07.327Z,98549.03
2023-02-26T12:46:18.131Z,98553.13
2023-02-26T12:49:41.051Z,98550.53
2023-02-26T12:53:10.784Z,98552.34
2023-02-26T12:57:01.477Z,98546.63
2023-02-26T13:00:15.264Z,98553.00
2023-02-26T13:03:49.520Z,98550.59
2023-02-26T13:07:10.588Z,98551.44
2023-02-26T13:10:20.576Z,98551.19
2023-02-26T13:13:35.379Z,98558.34
2023-02-26T13:16:45.952Z,98552.53
2023-02-26T13:19:50.776Z,98553.41
2023-02-26T13:22:56.790Z,98556.69
2023-02-26T13:26:02.228Z,98558.44
2023-02-26T13:29:07.475Z,98549.19
2023-02-26T13:32:13.894Z,98560.56
2023-02-26T13:35:22.741Z,98562.78
2023-02-26T13:38:33.621Z,98556.38
2023-02-26T13:41:47.782Z,98571.00
2023-02-26T13:44:53.174Z,98563.06
2023-02-26T13:48:13.575Z,98561.47
2023-02-26T13:51:29.043Z,98572.03
2023-02-26T13:54:43.712Z,98568.09
2023-02-26T13:57:52.929Z,98569.06
2023-02-26T14:01:00.328Z,98574.66
2023-02-26T14:04:25.133Z,98569.91
2023-02-26T14:07:49.457Z,98570.00
2023-02-26T14:10:58.165Z,98580.13
2023-02-26T14:14:13.875Z,98576.31
2023-02-26T14:17:27.872Z,98579.88
2023-02-26T14:20:31.843Z,98576.75
2023-02-26T14:23:38.029Z,98581.59
2023-02-26T14:26:46.431Z,98571.22
2023-02-26T14:30:18.091Z,98581.09
2023-02-26T14:33:28.646Z,98579.72
2023-02-26T14:36:36.502Z,98581.19
2023-02-26T14:39:41.658Z,98577.19
2023-02-26T14:46:14.488Z,98584.19
2023-02-26T14:49:22.141Z,98576.53
2023-02-26T14:52:52.256Z,98585.50
2023-02-26T14:56:07.858Z,98588.97
2023-02-26T14:59:39.459Z,98594.84
2023-02-26T15:02:53.679Z,98600.41
2023-02-26T15:06:14.515Z,98604.63
2023-02-26T15:09:21.473Z,98611.63
2023-02-26T15:12:48.311Z,98614.22
2023-02-26T15:15:55.277Z,98614.47
2023-02-26T15:19:15.436Z,98619.09
2023-02-26T15:22:30.788Z,98615.72
2023-02-26T15:25:36.288Z,98611.44
2023-02-26T15:28:41.462Z,98619.09
2023-02-26T15:31:46.404Z,98617.56
2023-02-26T15:34:56.817Z,98628.13
2023-02-26T15:38:02.467Z,98629.06
2023-02-26T15:41:05.302Z,98623.44
2023-02-26T15:44:10.713Z,98631.81
2023-02-26T15:47:14.619Z,98634.88
2023-02-26T15:50:18.562Z,98638.31
2023-02-26T15:53:25.226Z,98623.56
2023-02-26T15:56:31.716Z,98633.44
2023-02-26T15:59:34.927Z,98641.50
2023-02-26T16:02:39.258Z,98642.38
2023-02-26T16:05:43.241Z,98646.03
2023-02-26T16:08:45.974Z,98655.41
2023-02-26T16:11:50.872Z,98664.47
2023-02-26T16:14:56.991Z,98675.94
2023-02-26T16:18:00.550Z,98664.94
2023-02-26T16:21:07.450Z,98676.63
2023-02-26T16:24:18.851Z,98678.22
2023-02-26T16:27:22.860Z,98689.53
2023-02-26T16:30:32.849Z,98692.78
2023-02-26T16:33:35.628Z,98706.78
2023-02-26T16:36:42.339Z,98706.25
2023-02-26T16:39:46.154Z,98704.09
2023-02-26T16:42:53.048Z,98717.59
2023-02-26T16:45:57.742Z,98721.91
2023-02-26T16:49:02.027Z,98727.03
2023-02-26T16:52:06.907Z,98740.72
2023-02-26T16:55:18.327Z,98743.41
2023-02-26T16:58:21.884Z,98749.91
2023-02-26T17:01:25.547Z,98747.19
2023-02-26T17:04:29.857Z,98750.41
2023-02-26T17:07:36.333Z,98758.47
2023-02-26T17:10:41.199Z,98758.44
2023-02-26T17:13:43.920Z,98766.22
2023-02-26T17:16:47.439Z,98767.59
2023-02-26T17:19:50.760Z,98773.53
2023-02-26T17:22:56.142Z,98775.94
2023-02-26T17:26:02.284Z,98776.44
2023-02-26T17:29:04.936Z,98783.41
2023-02-26T17:35:37.023Z,98795.75
2023-02-26T17:38:42.252Z,98794.03
2023-02-26T17:41:46.016Z,98803.19
2023-02-26T17:44:48.743Z,98803.53
2023-02-26T17:47:51.313Z,98803.47
2023-02-26T17:50:55.436Z,98802.91
2023-02-26T17:53:59.584Z,98802.72
2023-02-26T17:57:02.219Z,98804.38
2023-02-26T18:00:05.527Z,98809.44
2023-02-26T18:03:08.701Z,98808.16
2023-02-26T18:06:14.625Z,98815.47
2023-02-26T18:09:19.566Z,98821.47
2023-02-26T18:12:23.532Z,98813.31
2023-02-26T18:15:26.793Z,98826.84
2023-02-26T18:18:30.765Z,98826.28
2023-02-26T18:21:34.160Z,98825.78
2023-02-26T18:24:40.083Z,98834.03
2023-02-26T18:27:42.985Z,98836.31
2023-02-26T18:30:45.990Z,98836.03
2023-02-26T18:33:54.462Z,98831.59
2023-02-26T18:36:57.080Z,98835.03
2023-02-26T18:40:04.719Z,98842.09
2023-02-26T18:43:10.342Z,98843.16
2023-02-26T18:46:13.765Z,98848.22
2023-02-26T18:49:18.516Z,98851.91
2023-02-26T18:52:21.311Z,98850.22
2023-02-26T18:55:28.083Z,98852.44
2023-02-26T18:58:30.976Z,98851.97
2023-02-26T19:01:33.797Z,98839.38
2023-02-26T19:04:36.744Z,98840.41
2023-02-26T19:07:39.806Z,98848.25
2023-02-26T19:10:43.706Z,98847.72
2023-02-26T19:13:47.179Z,98858.22
2023-02-26T19:16:49.783Z,98861.34
2023-02-26T19:19:52.657Z,98868.78
2023-02-26T19:22:55.301Z,98866.88
2023-02-26T19:25:59.257Z,98871.13
2023-02-26T19:29:02.471Z,98868.94
2023-02-26T19:32:05.743Z,98875.22
2023-02-26T19:35:09.379Z,98877.97
2023-02-26T19:38:12.493Z,98887.97
2023-02-26T19:41:18.759Z,98890.84
2023-02-26T19:44:21.978Z,98886.78
2023-02-26T19:47:24.682Z,98895.97
2023-02-26T19:50:27.434Z,98889.44
2023-02-26T19:53:31.387Z,98896.09
2023-02-26T19:56:35.684Z,98898.22
2023-02-26T19:59:38.200Z,98904.97
2023-02-26T20:02:43.010Z,98917.34
2023-02-26T20:05:45.692Z,98912.78
2023-02-26T20:08:48.841Z,98920.28
2023-02-26T20:11:52.928Z,98929.94
2023-02-26T20:14:55.503Z,98924.97
2023-02-26T20:17:58.181Z,98921.72
2023-02-26T20:21:02.154Z,98919.31
2023-02-26T20:24:05.470Z,98925.88
2023-02-26T20:27:09.488Z,98935.44
2023-02-26T20:30:13.079Z,98935.59
2023-02-26T20:33:15.862Z,98936.56
2023-02-26T20:36:18.491Z,98945.50
2023-02-26T20:39:21.114Z,98948.31
2023-02-26T20:42:25.402Z,98960.28
2023-02-26T20:45:28.712Z,98961.22
2023-02-26T20:48:31.712Z,98962.66
2023-02-26T20:51:34.321Z,98963.81
2023-02-26T20:54:36.976Z,98972.47
2023-02-26T20:57:40.959Z,98967.75
2023-02-26T21:00:43.952Z,98969.63
2023-02-26T21:03:46.608Z,98969.78
2023-02-26T21:06:49.824Z,98970.38
2023-02-26T21:09:52.715Z,98975.72
2023-02-26T21:12:56.856Z,98970.91
2023-02-26T21:15:59.813Z,98968.94
2023-02-26T21:19:03.842Z,98971.75
2023-02-26T21:22:06.504Z,98968.91
2023-02-26T21:25:09.986Z,98972.63
2023-02-26T21:28:13.999Z,98976.72
2023-02-26T21:31:17.237Z,98980.06
2023-02-26T21:34:33.253Z,98982.19
2023-02-26T21:37:36.235Z,98990.44
2023-02-26T21:40:39.535Z,98979.19
2023-02-26T21:43:45.845Z,98987.72
2023-02-26T21:46:48.380Z,98977.38
2023-02-26T21:49:51.085Z,98980.34
2023-02-26T21:52:53.902Z,98974.00
2023-02-26T21:55:56.760Z,98979.75
2023-02-26T21:59:00.809Z,98978.38
2023-02-26T22:02:03.606Z,98973.50
2023-02-26T22:05:06.416Z,98980.75
2023-02-26T22:11:36.704Z,98960.50
2023-02-26T22:14:43.167Z,98967.72
2023-02-26T22:17:45.853Z,98962.84
2023-02-26T22:20:48.955Z,98967.31
2023-02-26T22:23:51.762Z,98972.63
2023-02-26T22:26:54.853Z,98968.63
2023-02-26T22:29:58.824Z,98964.56
2023-02-26T22:33:01.488Z,98973.38
2023-02-26T22:36:04.483Z,98969.78
2023-02-26T22:39:07.693Z,98969.72
2023-02-26T22:42:10.239Z,98973.78
2023-02-26T22:45:17.119Z,98968.69
2023-02-26T22:48:20.843Z,98964.19
2023-02-26T22:51:23.917Z,98975.50
2023-02-26T22:54:27.192Z,98966.34
2023-02-26T22:57:29.864Z,98975.31
2023-02-26T23:00:33.871Z,98971.38
2023-02-26T23:03:41.323Z,98977.91
2023-02-26T23:06:44.053Z,98980.34
2023-02-26T23:09:46.660Z,98976.84
2023-02-26T23:12:49.239Z,98988.75
2023-02-26T23:15:53.542Z,98977.09
2023-02-26T23:18:56.298Z,98984.44
2023-02-26T23:21:59.134Z,98985.94
2023-02-26T23:25:01.763Z,98980.00
2023-02-26T23:28:04.381Z,98982.56
2023-02-26T23:31:08.666Z,98991.53
2023-02-26T23:34:11.420Z,98983.13
2023-02-26T23:37:14.132Z,98983.63
2023-02-26T23:40:17.051Z,98985.38
2023-02-26T23:43:19.657Z,98986.75
2023-02-26T23:46:23.784Z,98990.94
2023-02-26T23:49:26.520Z,98994.47
2023-02-26T23:52:29.123Z,98995.03
2023-02-26T23:55:31.662Z,98987.94
2023-02-26T23:58:34.263Z,98987.00
